Time;durP1;ratioP1;P1;durP2;ratioP2;P2;SDS_P1;SDS_P2;PMS_P1;PMS_P2;Temp;Humidity;BMP_temperature;BMP_pressure;BME280_temperature;BME280_humidity;BME280_pressure;Samples;Min_cycle;Max_cycle;Signal;HPM_P1;HPM_P2
2022/11/17 00:00:28;;;;;;;0.03;0.03;;;;;;;13.07;75.39;98048.22;7345858;19;20089;-57
2022/11/17 00:02:54;;;;;;;0.10;0.10;;;;;;;13.11;75.66;98064.56;7353604;19;20011;-57
2022/11/17 00:05:20;;;;;;;0.00;0.00;;;;;;;13.09;75.70;98061.22;7346523;19;20015;-57
2022/11/17 00:07:45;;;;;;;0.00;0.00;;;;;;;13.04;75.36;98069.41;7347477;19;20037;-57
2022/11/17 00:10:12;;;;;;;0.03;0.03;;;;;;;13.06;74.84;98071.91;7350280;19;20002;-57
2022/11/17 00:15:22;;;;;;;0.05;0.05;;;;;;;13.01;74.94;98080.13;7350278;19;20045;-57
2022/11/17 00:17:48;;;;;;;0.10;0.10;;;;;;;13.00;75.25;98078.44;7345110;19;20968;-56
2022/11/17 00:22:58;;;;;;;0.10;0.10;;;;;;;12.95;75.28;98086.66;7348721;19;20017;-57
2022/11/17 00:25:23;;;;;;;0.00;0.00;;;;;;;12.88;74.71;98089.84;7350632;19;20011;-56
2022/11/17 00:27:49;;;;;;;0.10;0.10;;;;;;;12.88;73.29;98084.63;7354820;19;20014;-57
2022/11/17 00:34:03;;;;;;;0.00;0.00;;;;;;;12.83;72.55;98084.13;7353209;19;20025;-57
2022/11/17 00:35:53;;;;;;;0.00;0.00;;;;;;;12.73;73.50;98092.66;7356626;19;20469;-57
2022/11/17 00:38:18;;;;;;;0.00;0.00;;;;;;;12.57;73.68;98080.75;7356441;19;20025;-57
2022/11/17 00:40:44;;;;;;;0.00;0.00;;;;;;;12.59;74.52;98094.59;7355714;19;20457;-57
2022/11/17 00:43:10;;;;;;;0.00;0.00;;;;;;;12.54;73.85;98096.72;7356413;19;20020;-58
2022/11/17 00:45:35;;;;;;;0.00;0.00;;;;;;;12.46;73.27;98100.69;7356758;19;21818;-57
2022/11/17 00:48:00;;;;;;;0.00;0.00;;;;;;;12.38;72.72;98096.97;7355791;19;20011;-58
2022/11/17 00:50:26;;;;;;;0.00;0.00;;;;;;;12.35;73.72;98102.41;7349368;19;20033;-57
2022/11/17 00:52:51;;;;;;;0.00;0.00;;;;;;;12.29;71.72;98103.69;7354367;19;20030;-57
2022/11/17 00:55:17;;;;;;;0.00;0.00;;;;;;;12.25;73.23;98106.63;7361335;19;20010;-57
2022/11/17 00:57:42;;;;;;;0.00;0.00;;;;;;;12.18;73.15;98104.47;7357767;19;20018;-56
2022/11/17 01:00:08;;;;;;;0.00;0.00;;;;;;;12.14;73.78;98107.41;7361882;19;20042;-57
2022/11/17 01:02:34;;;;;;;0.00;0.00;;;;;;;12.09;73.86;98107.72;7357060;19;20481;-57
2022/11/17 01:04:59;;;;;;;0.00;0.00;;;;;;;12.04;74.56;98099.34;7361362;19;20021;-57
2022/11/17 01:07:24;;;;;;;0.00;0.00;;;;;;;12.00;74.41;98107.53;7357288;19;20049;-57
2022/11/17 01:09:50;;;;;;;0.00;0.00;;;;;;;11.95;72.86;98110.47;7360152;19;20038;-57
2022/11/17 01:12:15;;;;;;;0.00;0.00;;;;;;;11.89;73.30;98103.03;7356758;19;20021;-57
2022/11/17 01:14:41;;;;;;;0.00;0.00;;;;;;;11.85;72.07;98104.19;7360542;19;20399;-57
2022/11/17 01:17:06;;;;;;;0.00;0.00;;;;;;;11.70;73.39;98085.97;7356561;19;20011;-57
2022/11/17 01:19:32;;;;;;;0.00;0.00;;;;;;;11.74;73.34;98091.84;7361400;19;20011;-56
2022/11/17 01:21:57;;;;;;;0.00;0.00;;;;;;;11.69;72.23;98094.75;7357351;19;20811;-57
2022/11/17 01:24:23;;;;;;;0.00;0.00;;;;;;;11.63;71.58;98087.34;7358309;19;20018;-57
2022/11/17 01:26:50;;;;;;;0.00;0.00;;;;;;;11.60;71.97;98089.34;7364388;19;20010;-57
2022/11/17 01:29:16;;;;;;;0.00;0.00;;;;;;;11.54;72.43;98095.81;7366946;19;20045;-56
2022/11/17 01:31:43;;;;;;;0.03;0.03;;;;;;;11.49;72.52;98092.69;7366150;19;20011;-57
2022/11/17 01:34:09;;;;;;;0.00;0.00;;;;;;;11.42;72.87;98096.66;7367042;19;20331;-57
2022/11/17 01:39:27;;;;;;;0.00;0.00;;;;;;;11.31;72.82;98099.16;7366226;19;20424;-57
2022/11/17 01:41:52;;;;;;;;;;;;;;;11.31;71.68;98104.41;7366215;19;20480;-57
2022/11/17 01:45:01;;;;;;;0.00;0.00;;;;;;;11.25;72.48;98104.78;7365549;19;19918;-58
2022/11/17 01:47:35;;;;;;;0.00;0.00;;;;;;;11.18;72.72;98107.81;7263172;19;2004522;-57
2022/11/17 01:50:10;;;;;;;0.00;0.00;;;;;;;10.96;72.92;98081.47;7365532;19;20974;-58
2022/11/17 01:52:39;;;;;;;0.00;0.00;;;;;;;11.03;74.47;98105.38;7364523;19;20616;-58
2022/11/17 01:55:06;;;;;;;0.00;0.00;;;;;;;10.91;74.10;98101.81;7365135;19;20779;-57
2022/11/17 01:57:37;;;;;;;0.00;0.00;;;;;;;10.91;74.53;98110.47;7364163;19;20014;-57
2022/11/17 02:00:06;;;;;;;0.00;0.00;;;;;;;10.89;74.93;98108.88;7363783;19;20685;-57
2022/11/17 02:02:33;;;;;;;0.00;0.00;;;;;;;10.87;74.92;98116.84;7363416;19;21029;-57
2022/11/17 02:05:08;;;;;;;0.00;0.00;;;;;;;10.84;74.31;98113.56;7363054;19;20025;-56
2022/11/17 02:07:36;;;;;;;0.00;0.00;;;;;;;10.77;74.39;98109.69;7365266;19;20011;-57
2022/11/17 02:10:04;;;;;;;0.10;0.10;;;;;;;10.75;74.37;98116.81;7364594;19;20037;-57
2022/11/17 02:12:31;;;;;;;0.10;0.10;;;;;;;10.67;74.60;98112.06;7365223;19;20121;-56
2022/11/17 02:14:57;;;;;;;0.00;0.00;;;;;;;10.67;74.29;98119.91;7363934;19;20025;-57
2022/11/17 02:17:34;;;;;;;0.00;0.00;;;;;;;10.60;74.26;98124.69;7364247;19;20014;-57
2022/11/17 02:20:16;;;;;;;0.00;0.00;;;;;;;10.60;73.59;98124.69;7362643;19;20018;-57
2022/11/17 02:23:13;;;;;;;0.00;0.00;;;;;;;10.56;74.02;98127.56;7364427;19;20046;-57
2022/11/17 02:25:54;;;;;;;0.10;0.10;;;;;;;10.51;73.57;98130.47;7260101;19;2004361;-57
2022/11/17 02:28:28;;;;;;;0.00;0.00;;;;;;;10.47;73.65;98133.38;7364043;19;20006;-58
2022/11/17 02:31:09;;;;;;;0.00;0.00;;;;;;;10.41;74.41;98132.00;7361638;19;20026;-58
2022/11/17 02:34:05;;;;;;;0.00;0.00;;;;;;;10.38;73.29;98140.00;7365312;19;20054;-58
2022/11/17 02:36:58;;;;;;;0.00;0.00;;;;;;;10.33;72.98;98144.66;7262119;19;2004551;-55
2022/11/17 02:39:48;;;;;;;0.00;0.00;;;;;;;10.28;73.13;98144.13;7259027;19;2004589;-57
2022/11/17 02:45:46;;;;;;;0.00;0.00;;;;;;;10.17;73.45;98146.53;7161382;19;2005297;-57
2022/11/17 02:48:25;;;;;;;0.00;0.00;;;;;;;10.10;74.09;98146.91;7365039;19;20762;-56
2022/11/17 02:50:53;;;;;;;0.00;0.00;;;;;;;9.95;73.87;98126.16;7362335;19;20015;-58
2022/11/17 02:53:21;;;;;;;0.00;0.00;;;;;;;10.01;74.21;98147.47;7361449;19;20070;-57
2022/11/17 02:55:51;;;;;;;0.00;0.00;;;;;;;9.98;73.33;98158.06;7364405;19;20812;-58
2022/11/17 02:58:17;;;;;;;0.00;0.00;;;;;;;9.94;73.17;98159.22;7355293;19;20081;-57
2022/11/17 03:00:50;;;;;;;0.00;0.00;;;;;;;9.88;72.87;98157.81;7365660;19;20069;-57
2022/11/17 03:03:51;;;;;;;0.00;0.00;;;;;;;9.84;71.29;98160.72;7363365;19;20465;-57
2022/11/17 03:06:43;;;;;;;0.08;0.08;;;;;;;9.75;71.76;98164.69;7260815;19;2004388;-57
2022/11/17 03:09:44;;;;;;;0.00;0.00;;;;;;;9.68;70.82;98168.59;7365207;19;20018;-56
2022/11/17 03:12:47;;;;;;;0.00;0.00;;;;;;;9.61;71.16;98172.50;7262898;19;2004345;-56
2022/11/17 03:15:20;;;;;;;0.00;0.00;;;;;;;9.52;71.87;98173.03;7258414;19;2004296;-57
2022/11/17 03:18:14;;;;;;;0.00;0.00;;;;;;;9.43;71.38;98187.44;7363439;19;20017;-57
2022/11/17 03:20:56;;;;;;;0.10;0.10;;;;;;;9.37;71.12;98185.19;7262396;19;2004568;-58
2022/11/17 03:23:32;;;;;;;0.08;0.08;;;;;;;9.30;70.99;98181.25;7361575;19;20818;-57
2022/11/17 03:26:01;;;;;;;0.00;0.00;;;;;;;9.22;71.55;98188.66;7361049;19;20006;-57
2022/11/17 03:28:29;;;;;;;0.00;0.00;;;;;;;9.12;71.63;98177.09;7364705;19;20085;-57
2022/11/17 03:30:57;;;;;;;0.00;0.00;;;;;;;9.10;70.91;98192.81;7363535;19;20021;-57
2022/11/17 03:33:25;;;;;;;0.00;0.00;;;;;;;9.03;70.41;98194.94;7364692;19;20681;-58
2022/11/17 03:35:59;;;;;;;0.00;0.00;;;;;;;8.97;70.57;98200.50;7364227;19;20369;-57
2022/11/17 03:38:30;;;;;;;0.00;0.00;;;;;;;8.90;71.37;98204.34;7364875;19;20007;-57
2022/11/17 03:41:00;;;;;;;0.00;0.00;;;;;;;8.83;70.45;98206.47;7365753;19;20014;-57
2022/11/17 03:43:27;;;;;;;0.00;0.00;;;;;;;8.73;71.34;98196.66;7360590;19;20014;-57
2022/11/17 03:45:57;;;;;;;0.00;0.00;;;;;;;8.71;71.26;98204.50;7364571;19;20413;-55
2022/11/17 03:48:58;;;;;;;0.00;0.00;;;;;;;8.68;70.94;98214.28;7363124;19;20128;-57
2022/11/17 03:51:27;;;;;;;0.00;0.00;;;;;;;8.58;70.72;98204.38;7259002;19;2004500;-57
2022/11/17 03:53:53;;;;;;;0.00;0.00;;;;;;;8.57;71.34;98207.06;7362311;19;20029;-57
2022/11/17 03:56:34;;;;;;;0.00;0.00;;;;;;;8.52;71.25;98209.91;7363079;19;20014;-57
2022/11/17 03:59:12;;;;;;;0.00;0.00;;;;;;;8.32;71.70;98182.34;7362732;19;20018;-57
2022/11/17 04:01:37;;;;;;;0.10;0.10;;;;;;;8.43;71.93;98213.00;7364125;19;20041;-57
2022/11/17 04:04:03;;;;;;;0.00;0.00;;;;;;;8.40;71.55;98213.16;7353766;19;20007;-57
2022/11/17 04:06:28;;;;;;;0.00;0.00;;;;;;;8.37;71.60;98210.72;7361807;19;20018;-54
2022/11/17 04:08:54;;;;;;;0.00;0.00;;;;;;;8.36;71.85;98213.34;7363557;19;20062;-57
2022/11/17 04:16:47;;;;;;;0.00;0.00;;;;;;;8.29;71.79;98208.50;7360867;19;20743;-56
2022/11/17 04:19:12;;;;;;;0.08;0.08;;;;;;;8.27;71.71;98214.72;7360668;19;22383;-57
2022/11/17 04:21:38;;;;;;;0.00;0.00;;;;;;;8.26;72.23;98207.81;7358788;19;20022;-58
2022/11/17 04:24:03;;;;;;;0.00;0.00;;;;;;;8.21;71.97;98210.69;7359047;19;20006;-57
2022/11/17 04:29:13;;;;;;;0.10;0.10;;;;;;;8.16;72.39;98206.63;7362594;19;20022;-57
2022/11/17 04:31:38;;;;;;;0.00;0.00;;;;;;;8.21;73.12;98225.41;7359556;19;20010;-57
2022/11/17 04:34:05;;;;;;;0.00;0.00;;;;;;;8.20;73.18;98219.38;7360375;19;20483;-56
2022/11/17 04:36:44;;;;;;;0.10;0.10;;;;;;;8.22;73.04;98221.91;7363224;19;20027;-52
2022/11/17 04:39:14;;;;;;;0.00;0.00;;;;;;;8.15;73.35;98210.97;7362225;19;20117;-57
2022/11/17 04:41:52;;;;;;;0.00;0.00;;;;;;;8.24;73.08;98230.47;7364388;19;20994;-58
2022/11/17 04:44:21;;;;;;;0.00;0.00;;;;;;;8.25;73.69;98226.94;7362282;19;20097;-57
2022/11/17 04:46:46;;;;;;;0.00;0.00;;;;;;;8.26;73.24;98226.00;7362124;19;20049;-57
2022/11/17 04:49:14;;;;;;;0.10;0.10;;;;;;;8.27;72.73;98240.72;7363414;19;20010;-57
2022/11/17 04:51:39;;;;;;;0.10;0.10;;;;;;;8.27;73.08;98245.91;7361680;19;20010;-57
2022/11/17 04:54:06;;;;;;;0.10;0.10;;;;;;;8.14;72.75;98219.72;7362271;19;20599;-57
2022/11/17 04:56:32;;;;;;;0.00;0.00;;;;;;;8.28;73.14;98242.38;7361499;19;20011;-57
2022/11/17 04:58:57;;;;;;;0.10;0.10;;;;;;;8.26;73.37;98249.41;7362696;19;20108;-57
2022/11/17 05:01:24;;;;;;;0.00;0.00;;;;;;;8.28;72.88;98250.19;7365656;19;20045;-57
2022/11/17 05:03:53;;;;;;;0.00;0.00;;;;;;;8.30;72.83;98250.94;7365974;19;20037;-54
2022/11/17 05:06:26;;;;;;;0.00;0.00;;;;;;;8.29;72.76;98249.25;7370256;19;20507;-57
2022/11/17 05:08:56;;;;;;;0.00;0.00;;;;;;;8.29;73.11;98257.06;7363359;19;20339;-57
2022/11/17 05:14:13;;;;;;;0.00;0.00;;;;;;;8.29;72.90;98257.06;7369281;19;20784;-57
2022/11/17 05:19:25;;;;;;;0.00;0.00;;;;;;;8.25;72.71;98258.13;7370245;19;20082;-55
2022/11/17 05:21:51;;;;;;;0.00;0.00;;;;;;;8.23;72.74;98258.22;7367477;19;20366;-57
2022/11/17 05:24:17;;;;;;;0.03;0.03;;;;;;;8.23;72.42;98262.59;7368254;19;20010;-57
2022/11/17 05:26:44;;;;;;;0.03;0.03;;;;;;;8.20;73.05;98265.34;7368969;19;20013;-56
2022/11/17 05:29:11;;;;;;;0.00;0.00;;;;;;;8.18;72.80;98267.19;7368703;19;20046;-57
2022/11/17 05:31:37;;;;;;;0.00;0.00;;;;;;;8.17;72.80;98270.72;7367880;19;20137;-57
2022/11/17 05:34:05;;;;;;;0.00;0.00;;;;;;;8.14;73.19;98266.50;7368752;19;21986;-57
2022/11/17 05:36:31;;;;;;;0.00;0.00;;;;;;;8.14;73.39;98276.06;7368782;19;20441;-56
2022/11/17 05:38:56;;;;;;;0.00;0.00;;;;;;;8.12;73.46;98276.16;7369005;19;20141;-56
2022/11/17 05:41:23;;;;;;;0.00;0.00;;;;;;;8.11;73.40;98273.59;7368430;19;20099;-57
2022/11/17 05:43:49;;;;;;;0.00;0.00;;;;;;;8.09;73.20;98284.09;7368396;19;20869;-56
2022/11/17 05:46:18;;;;;;;0.00;0.00;;;;;;;8.08;73.18;98269.41;7366036;19;20550;-57
2022/11/17 05:48:45;;;;;;;0.00;0.00;;;;;;;8.07;72.99;98270.34;7366645;19;20115;-57
2022/11/17 05:51:11;;;;;;;0.10;0.10;;;;;;;8.05;72.48;98267.78;7367311;19;20098;-57
2022/11/17 05:53:37;;;;;;;0.00;0.00;;;;;;;8.01;72.41;98271.50;7365152;19;20010;-57
2022/11/17 05:56:29;;;;;;;0.00;0.00;;;;;;;8.02;72.27;98280.97;7365865;19;20025;-57
2022/11/17 05:59:15;;;;;;;0.00;0.00;;;;;;;7.87;72.12;98260.97;7265259;19;2004465;-57
2022/11/17 06:01:47;;;;;;;0.10;0.10;;;;;;;7.90;71.95;98278.13;7366707;19;20008;-55
2022/11/17 06:04:16;;;;;;;0.00;0.00;;;;;;;7.88;72.17;98285.19;7364133;19;20011;-57
2022/11/17 06:06:42;;;;;;;0.00;0.00;;;;;;;7.83;72.41;98279.38;7366800;19;20015;-57
2022/11/17 06:09:08;;;;;;;0.00;0.00;;;;;;;7.79;72.12;98291.66;7368664;19;20491;-56
2022/11/17 06:11:33;;;;;;;0.00;0.00;;;;;;;7.75;72.46;98284.94;7365479;19;20026;-57
2022/11/17 06:13:58;;;;;;;0.00;0.00;;;;;;;7.67;72.55;98284.50;7365251;19;20019;-57
2022/11/17 06:16:28;;;;;;;0.00;0.00;;;;;;;7.71;72.37;98299.03;7367437;19;20014;-57
2022/11/17 06:19:02;;;;;;;0.00;0.00;;;;;;;7.60;72.66;98280.50;7368557;19;20085;-57
2022/11/17 06:21:28;;;;;;;0.00;0.00;;;;;;;7.63;72.56;98301.16;7365952;19;20010;-57
2022/11/17 06:23:53;;;;;;;0.00;0.00;;;;;;;7.49;72.14;98278.44;7367504;19;21783;-57
2022/11/17 06:26:19;;;;;;;0.00;0.00;;;;;;;7.62;72.44;98309.84;7366881;19;20040;-57
2022/11/17 06:28:47;;;;;;;0.00;0.00;;;;;;;7.60;72.60;98312.50;7368153;19;20133;-57
2022/11/17 06:31:14;;;;;;;0.00;0.00;;;;;;;7.58;72.72;98303.97;7365715;19;20011;-57
2022/11/17 06:33:39;;;;;;;0.00;0.00;;;;;;;7.53;72.68;98290.38;7364999;19;20109;-56
2022/11/17 06:36:06;;;;;;;0.03;0.03;;;;;;;7.44;72.64;98286.44;7368968;19;20125;-57
2022/11/17 06:38:34;;;;;;;0.00;0.00;;;;;;;7.57;72.97;98307.47;7366161;19;20498;-57
2022/11/17 06:41:00;;;;;;;0.00;0.00;;;;;;;7.56;72.94;98304.97;7367322;19;20026;-57
2022/11/17 06:43:26;;;;;;;0.10;0.10;;;;;;;7.53;73.35;98309.38;7365322;19;20018;-56
2022/11/17 06:45:51;;;;;;;0.00;0.00;;;;;;;7.54;73.18;98302.44;7364689;19;20035;-56
2022/11/17 06:48:24;;;;;;;0.00;0.00;;;;;;;7.52;73.14;98306.88;7365584;19;20014;-55
2022/11/17 06:50:49;;;;;;;0.03;0.03;;;;;;;7.52;73.29;98305.09;7365985;19;20014;-57
2022/11/17 06:53:15;;;;;;;0.10;0.10;;;;;;;7.43;73.02;98291.72;7365583;19;25341;-57
2022/11/17 06:55:40;;;;;;;0.00;0.00;;;;;;;7.50;73.49;98304.34;7366452;19;20122;-57
2022/11/17 06:58:10;;;;;;;0.00;0.00;;;;;;;7.50;73.32;98306.94;7355101;19;20616;-57
2022/11/17 07:00:36;;;;;;;0.00;0.00;;;;;;;7.49;73.74;98297.47;7363265;19;20018;-57
2022/11/17 07:03:04;;;;;;;0.00;0.00;;;;;;;7.49;73.63;98304.41;7365102;19;20014;-57
2022/11/17 07:05:31;;;;;;;0.10;0.10;;;;;;;7.48;73.78;98303.56;7363660;19;20036;-58
2022/11/17 07:08:01;;;;;;;0.00;0.00;;;;;;;7.48;73.26;98303.56;7365153;19;20033;-56
2022/11/17 07:10:27;;;;;;;0.00;0.00;;;;;;;7.47;73.16;98317.47;7363959;19;20495;-56
2022/11/17 07:12:53;;;;;;;0.00;0.00;;;;;;;7.37;73.05;98300.66;7362390;19;20021;-56
2022/11/17 07:15:19;;;;;;;0.10;0.10;;;;;;;7.31;73.36;98292.34;7361404;19;21104;-57
2022/11/17 07:17:45;;;;;;;0.00;0.00;;;;;;;7.44;73.46;98316.78;7365614;19;20020;-57
2022/11/17 07:20:11;;;;;;;0.05;0.05;;;;;;;7.40;73.93;98321.28;7364914;19;21101;-57
2022/11/17 07:22:37;;;;;;;0.00;0.00;;;;;;;7.42;73.71;98329.84;7364627;19;20006;-57
2022/11/17 07:25:03;;;;;;;0.10;0.10;;;;;;;7.42;73.24;98334.19;7362340;19;22871;-57
2022/11/17 07:27:29;;;;;;;0.00;0.00;;;;;;;7.34;73.02;98315.53;7366367;19;20007;-56
2022/11/17 07:29:55;;;;;;;0.00;0.00;;;;;;;7.39;73.46;98335.16;7364247;19;22242;-56
2022/11/17 07:32:21;;;;;;;0.00;0.00;;;;;;;7.38;73.49;98333.50;7361943;19;20006;-57
2022/11/17 07:34:46;;;;;;;0.00;0.00;;;;;;;7.35;73.22;98336.25;7365685;19;20473;-57
2022/11/17 07:37:12;;;;;;;0.00;0.00;;;;;;;7.36;72.74;98334.50;7361554;19;20006;-57
2022/11/17 07:39:37;;;;;;;0.00;0.00;;;;;;;7.33;72.99;98340.66;7364698;19;20008;-56
2022/11/17 07:42:03;;;;;;;0.00;0.00;;;;;;;7.30;73.03;98340.81;7361120;19;20024;-57
2022/11/17 07:44:28;;;;;;;0.00;0.00;;;;;;;7.29;73.20;98346.91;7357310;19;20744;-55
2022/11/17 07:46:54;;;;;;;0.05;0.05;;;;;;;7.26;73.13;98345.31;7365680;19;20007;-56
2022/11/17 07:49:19;;;;;;;0.00;0.00;;;;;;;7.24;73.06;98344.50;7364404;19;20029;-57
2022/11/17 07:51:44;;;;;;;0.00;0.00;;;;;;;7.22;73.18;98346.34;7361698;19;20595;-56
2022/11/17 07:54:10;;;;;;;0.00;0.00;;;;;;;7.18;72.82;98347.41;7363505;19;20025;-57
2022/11/17 07:56:35;;;;;;;0.08;0.08;;;;;;;7.18;72.84;98352.59;7359660;19;20074;-57
2022/11/17 07:59:01;;;;;;;0.10;0.10;;;;;;;7.15;72.72;98357.09;7363687;19;20027;-57
2022/11/17 08:01:26;;;;;;;0.00;0.00;;;;;;;7.13;72.37;98358.91;7359072;19;20026;-56
2022/11/17 08:03:52;;;;;;;0.00;0.00;;;;;;;7.11;72.17;98365.94;7352288;19;20875;-56
2022/11/17 08:06:18;;;;;;;0.00;0.00;;;;;;;7.08;72.31;98360.88;7361609;19;20052;-57
2022/11/17 08:08:44;;;;;;;0.00;0.00;;;;;;;7.04;72.59;98367.94;7364376;19;20006;-57
2022/11/17 08:11:11;;;;;;;0.00;0.00;;;;;;;7.02;72.31;98372.38;7362549;19;22598;-56
2022/11/17 08:13:38;;;;;;;0.00;0.00;;;;;;;6.99;72.26;98378.56;7355759;19;20006;-57
2022/11/17 08:16:05;;;;;;;0.08;0.08;;;;;;;6.98;72.49;98382.06;7364286;19;20019;-57
2022/11/17 08:18:31;;;;;;;0.00;0.00;;;;;;;6.96;72.52;98377.84;7363948;19;20003;-57
2022/11/17 08:21:03;;;;;;;0.00;0.00;;;;;;;6.89;72.87;98372.09;7361182;19;20010;-57
2022/11/17 08:23:29;;;;;;;0.00;0.00;;;;;;;6.92;73.15;98377.16;7363364;19;20022;-56
2022/11/17 08:25:54;;;;;;;0.00;0.00;;;;;;;6.91;73.24;98375.47;7364235;19;20010;-57
2022/11/17 08:28:20;;;;;;;0.00;0.00;;;;;;;6.91;72.66;98380.66;7357077;19;20102;-56
2022/11/17 08:30:46;;;;;;;0.00;0.00;;;;;;;6.92;73.21;98378.91;7363449;19;20014;-57
2022/11/17 08:33:11;;;;;;;0.00;0.00;;;;;;;6.90;73.22;98380.72;7362156;19;20022;-57
2022/11/17 08:35:36;;;;;;;0.10;0.10;;;;;;;6.90;73.14;98378.97;7369026;19;20026;-57
2022/11/17 08:38:02;;;;;;;0.00;0.00;;;;;;;6.88;73.04;98380.78;7368391;19;20011;-57
2022/11/17 08:40:27;;;;;;;0.10;0.10;;;;;;;6.87;73.13;98368.72;7370175;19;20014;-57
2022/11/17 08:42:56;;;;;;;0.00;0.00;;;;;;;6.86;73.05;98376.59;7368958;19;20505;-56
2022/11/17 08:45:22;;;;;;;0.10;0.10;;;;;;;6.79;73.43;98373.41;7367461;19;20022;-56
2022/11/17 08:47:47;;;;;;;0.00;0.00;;;;;;;6.85;73.35;98385.28;7365849;19;20010;-56
2022/11/17 08:50:13;;;;;;;0.00;0.00;;;;;;;6.84;73.69;98389.59;7367152;19;20010;-57
2022/11/17 08:52:38;;;;;;;0.10;0.10;;;;;;;6.84;73.77;98384.41;7370744;19;20542;-57
2022/11/17 08:55:04;;;;;;;0.00;0.00;;;;;;;6.85;73.96;98383.53;7370330;19;20014;-57
2022/11/17 08:57:31;;;;;;;0.00;0.00;;;;;;;6.76;73.70;98370.97;7370320;19;20014;-57
2022/11/17 08:59:57;;;;;;;0.00;0.00;;;;;;;6.90;73.87;98394.53;7369497;19;20620;-56
2022/11/17 09:02:22;;;;;;;0.00;0.00;;;;;;;6.92;73.81;98387.53;7371383;19;20007;-57
2022/11/17 09:04:49;;;;;;;0.00;0.00;;;;;;;6.95;74.13;98389.16;7367380;19;20018;-57
2022/11/17 09:07:14;;;;;;;0.00;0.00;;;;;;;6.98;74.21;98397.63;7369313;19;20608;-57
2022/11/17 09:09:40;;;;;;;0.00;0.00;;;;;;;7.02;74.14;98393.97;7370165;19;20014;-57
2022/11/17 09:12:05;;;;;;;0.10;0.10;;;;;;;7.03;74.17;98400.84;7370152;19;20027;-56
2022/11/17 09:14:31;;;;;;;0.00;0.00;;;;;;;7.07;74.21;98403.31;7367493;19;20603;-57
2022/11/17 09:16:56;;;;;;;0.10;0.10;;;;;;;7.05;73.66;98397.38;7368725;19;20632;-56
2022/11/17 09:19:22;;;;;;;0.00;0.00;;;;;;;7.12;74.09;98398.75;7368535;19;20007;-56
2022/11/17 09:21:47;;;;;;;0.00;0.00;;;;;;;7.13;73.72;98392.66;7368600;19;20469;-56
2022/11/17 09:24:12;;;;;;;0.10;0.10;;;;;;;7.17;74.23;98387.25;7369235;19;20102;-57
2022/11/17 09:26:39;;;;;;;0.00;0.00;;;;;;;7.21;73.85;98393.16;7367364;19;20489;-57
2022/11/17 09:29:06;;;;;;;0.10;0.10;;;;;;;7.24;74.20;98395.59;7368660;19;20014;-56
2022/11/17 09:31:31;;;;;;;0.00;0.00;;;;;;;7.29;74.23;98402.25;7370123;19;20873;-57
2022/11/17 09:33:57;;;;;;;0.00;0.00;;;;;;;7.35;74.81;98395.97;7370240;19;20006;-57
2022/11/17 09:36:22;;;;;;;0.05;0.05;;;;;;;7.42;75.03;98401.69;7369309;19;20483;-57
2022/11/17 09:38:49;;;;;;;0.00;0.00;;;;;;;7.40;75.21;98391.41;7368889;19;20874;-57
2022/11/17 09:41:14;;;;;;;0.10;0.10;;;;;;;7.56;75.48;98408.84;7370265;19;20595;-57
2022/11/17 09:43:45;;;;;;;0.00;0.00;;;;;;;7.62;74.81;98408.56;7368812;19;20009;-55
2022/11/17 09:46:18;;;;;;;0.10;0.10;;;;;;;7.69;75.12;98409.94;7365530;19;20549;-57
2022/11/17 09:48:57;;;;;;;0.00;0.00;;;;;;;7.74;75.19;98420.94;7368423;19;20010;-57
2022/11/17 09:51:26;;;;;;;0.00;0.00;;;;;;;7.80;74.91;98428.44;7368686;19;20077;-56
2022/11/17 09:54:00;;;;;;;0.10;0.10;;;;;;;7.77;75.19;98423.41;7368578;19;20021;-57
2022/11/17 09:56:26;;;;;;;0.00;0.00;;;;;;;7.82;75.22;98424.03;7368454;19;20752;-57
2022/11/17 09:59:00;;;;;;;0.10;0.10;;;;;;;7.97;75.21;98441.50;7365424;19;22428;-57
2022/11/17 10:01:27;;;;;;;0.00;0.00;;;;;;;8.04;75.42;98442.03;7364948;19;20564;-57
2022/11/17 10:03:55;;;;;;;0.00;0.00;;;;;;;8.10;75.85;98436.53;7367623;19;20010;-57
2022/11/17 10:06:43;;;;;;;0.00;0.00;;;;;;;8.23;75.86;98441.97;7367617;19;20050;-56
2022/11/17 10:09:30;;;;;;;0.00;0.00;;;;;;;8.29;75.44;98446.88;7369090;19;20013;-58
2022/11/17 10:12:16;;;;;;;0.00;0.00;;;;;;;8.39;76.29;98442.91;7367668;19;20028;-56
2022/11/17 10:14:42;;;;;;;0.00;0.00;;;;;;;8.46;76.08;98446.88;7365273;19;20699;-57
2022/11/17 10:17:09;;;;;;;0.10;0.10;;;;;;;8.55;75.95;98449.03;7367772;19;22193;-58
2022/11/17 10:19:37;;;;;;;0.00;0.00;;;;;;;8.69;76.68;98456.16;7365647;19;20175;-57
2022/11/17 10:22:05;;;;;;;;;;;;;;;8.84;77.51;98454.53;7368909;19;20414;-56
2022/11/17 10:24:42;;;;;;;0.00;0.00;;;;;;;8.99;76.98;98447.69;7365832;19;19917;-57
2022/11/17 10:27:16;;;;;;;0.00;0.00;;;;;;;9.15;77.61;98452.91;7365683;19;20010;-57
2022/11/17 10:29:57;;;;;;;0.00;0.00;;;;;;;9.29;76.81;98446.06;7364001;19;20014;-57
2022/11/17 10:32:24;;;;;;;0.00;0.00;;;;;;;9.38;76.01;98455.16;7366102;19;21807;-57
2022/11/17 10:34:50;;;;;;;0.05;0.05;;;;;;;9.49;76.08;98446.75;7365767;19;20022;-55
2022/11/17 10:37:18;;;;;;;0.00;0.00;;;;;;;9.65;76.26;98449.38;7368581;19;20010;-57
2022/11/17 10:39:45;;;;;;;0.00;0.00;;;;;;;9.76;76.12;98449.59;7365828;19;20073;-56
2022/11/17 10:42:19;;;;;;;0.00;0.00;;;;;;;9.93;76.19;98454.72;7366815;19;20011;-57
2022/11/17 10:44:51;;;;;;;0.00;0.00;;;;;;;10.07;76.31;98465.22;7365625;19;20090;-57
2022/11/17 10:47:30;;;;;;;0.10;0.10;;;;;;;10.25;76.84;98465.16;7366533;19;20025;-57
2022/11/17 10:50:24;;;;;;;0.00;0.00;;;;;;;10.39;76.65;98467.78;7368386;19;20018;-57
2022/11/17 10:52:52;;;;;;;0.00;0.00;;;;;;;10.44;75.99;98471.00;7267124;19;2004452;-57
2022/11/17 10:55:30;;;;;;;0.00;0.00;;;;;;;10.52;75.85;98476.59;7367097;19;20011;-56
2022/11/17 10:58:37;;;;;;;0.00;0.00;;;;;;;10.56;74.65;98472.88;7368977;19;20006;-57
2022/11/17 11:01:03;;;;;;;0.00;0.00;;;;;;;10.58;74.75;98471.00;7261199;19;2004376;-57
2022/11/17 11:03:32;;;;;;;0.00;0.00;;;;;;;10.61;74.28;98473.44;7362167;19;20006;-57
2022/11/17 11:06:23;;;;;;;0.00;0.00;;;;;;;10.62;73.59;98482.13;7363918;19;20011;-57
2022/11/17 11:08:48;;;;;;;0.00;0.00;;;;;;;10.61;73.97;98478.66;7366337;19;20006;-56
2022/11/17 11:11:22;;;;;;;0.00;0.00;;;;;;;10.56;73.69;98470.28;7367368;19;22364;-57
2022/11/17 11:13:59;;;;;;;0.00;0.00;;;;;;;10.63;73.88;98482.03;7366501;19;20014;-57
2022/11/17 11:16:27;;;;;;;0.00;0.00;;;;;;;10.62;73.36;98477.72;7366083;19;20026;-57
2022/11/17 11:18:53;;;;;;;0.00;0.00;;;;;;;10.63;74.36;98489.84;7367337;19;20386;-57
2022/11/17 11:21:21;;;;;;;0.05;0.05;;;;;;;10.65;73.72;98487.16;7364131;19;20015;-57
2022/11/17 11:24:19;;;;;;;0.00;0.00;;;;;;;10.66;74.42;98481.00;7367504;19;20086;-58
2022/11/17 11:27:10;;;;;;;0.00;0.00;;;;;;;10.67;74.00;98484.47;7263271;19;2004413;-57
2022/11/17 11:30:02;;;;;;;0.00;0.00;;;;;;;10.69;74.75;98482.59;7364926;19;20014;-57
2022/11/17 11:33:02;;;;;;;0.00;0.00;;;;;;;10.71;75.11;98480.75;7264391;19;2004533;-58
2022/11/17 11:35:52;;;;;;;0.00;0.00;;;;;;;10.69;74.05;98482.59;7259873;19;2005433;-57
2022/11/17 11:38:45;;;;;;;0.00;0.00;;;;;;;10.72;74.22;98477.19;7364755;19;20034;-57
2022/11/17 11:41:31;;;;;;;0.10;0.10;;;;;;;10.70;74.47;98481.69;7264644;19;2004537;-56
2022/11/17 11:44:41;;;;;;;0.10;0.10;;;;;;;10.76;75.50;98482.16;7366116;19;20034;-57
2022/11/17 11:47:18;;;;;;;0.10;0.10;;;;;;;10.77;75.35;98481.22;7263604;19;2004622;-57
2022/11/17 11:49:50;;;;;;;0.00;0.00;;;;;;;10.74;73.31;98480.56;7364815;19;20024;-57
2022/11/17 11:52:23;;;;;;;0.00;0.00;;;;;;;10.77;73.77;98480.38;7365331;19;21164;-57
2022/11/17 11:54:57;;;;;;;0.00;0.00;;;;;;;10.79;73.77;98478.50;7361913;19;20018;-56
2022/11/17 11:57:47;;;;;;;0.00;0.00;;;;;;;10.84;75.62;98482.53;7365798;19;20006;-57
2022/11/17 12:00:15;;;;;;;0.00;0.00;;;;;;;10.83;73.54;98472.19;7365720;19;20078;-57
2022/11/17 12:02:57;;;;;;;0.03;0.03;;;;;;;10.84;74.72;98464.25;7364189;19;20026;-57
2022/11/17 12:05:36;;;;;;;0.00;0.00;;;;;;;10.85;73.34;98463.34;7366261;19;20462;-56
2022/11/17 12:08:25;;;;;;;0.10;0.10;;;;;;;10.88;73.39;98472.75;7365464;19;20014;-57
2022/11/17 12:14:05;;;;;;;0.00;0.00;;;;;;;10.98;73.08;98467.81;7256733;19;2004358;-56
2022/11/17 12:16:34;;;;;;;0.10;0.10;;;;;;;10.97;73.78;98456.53;7364970;19;20128;-58
2022/11/17 12:19:01;;;;;;;0.10;0.10;;;;;;;11.05;73.24;98464.75;7364651;19;20010;-57
2022/11/17 12:21:27;;;;;;;0.00;0.00;;;;;;;11.11;73.53;98466.16;7366307;19;20065;-58
2022/11/17 12:24:02;;;;;;;0.00;0.00;;;;;;;11.21;74.32;98467.28;7364262;19;20728;-56
2022/11/17 12:26:32;;;;;;;0.00;0.00;;;;;;;11.25;73.86;98460.91;7363516;19;20430;-57